< < Back
Terminal Aerodrome Forecast


Current Version              Previous Versions:   1  2  3  4  5  6  7  8  9  

Terminal Aerodrome Forecast

715
FTUS44 KHUN 260526
TAFHSV
TAF
KHSV 260526Z 2606/2706 33004KT P6SM BKN100 OVC200
     FM260900 VRB02KT P6SM SCT250
     FM262100 16009KT P6SM OVC100
     FM270300 20006KT P6SM -RA BKN040=



Latest METAR

147
SAUS80 KWBC 261500 RRA
MTRHSV
METAR KHSV 261453Z 00000KT 10SM FEW200 04/M01 A3017 RMK AO2 SLP216
T00441011 51014


USA.gov is the U.S. government's official web portal to all federal, state and local government web resources and services.